Terminal Aerodrome Forecast
Issued by NWS

Current Version | Previous Version | Graphics & Text | Print | Product List | Glossary On
Versions: 1 2 3 4 5 6 7 8 9 10 11 12 13 14 15 16 17 18
179
FTUS41 KILN 110534
TAFLUK
TAF
KLUK 110534Z 1106/1206 25004KT P6SM BKN035
     FM110900 00000KT P6SM SCT035 BKN100
     FM111500 30004KT P6SM SCT025
     FM112300 00000KT P6SM BKN120=

USA.gov is the U.S. government's official web portal to all federal, state and local government web resources and services.